Time;durP1;ratioP1;P1;durP2;ratioP2;P2;SDS_P1;SDS_P2;PMS_P1;PMS_P2;Temp;Humidity;BMP_temperature;BMP_pressure;BME280_temperature;BME280_humidity;BME280_pressure;Samples;Min_cycle;Max_cycle;Signal;HPM_P1;HPM_P2
2022/12/22 03:26:19;;;;;;;117.75;45.72;;;6.10;99.90;;;;;;4955851;29;20079;-70
2022/12/22 03:28:44;;;;;;;135.20;48.88;;;6.10;99.90;;;;;;4955739;28;20490;-70
2022/12/22 03:31:10;;;;;;;123.88;48.17;;;6.20;99.90;;;;;;4971321;28;20574;-70
2022/12/22 03:33:36;;;;;;;134.35;45.95;;;6.20;99.90;;;;;;4974483;28;20483;-70
2022/12/22 03:36:03;;;;;;;130.10;50.80;;;6.30;99.90;;;;;;4975115;28;20022;-70
2022/12/22 03:38:28;;;;;;;117.60;46.35;;;6.20;99.90;;;;;;4974890;28;20050;-70
2022/12/22 03:40:56;;;;;;;125.03;48.47;;;6.20;99.90;;;;;;4974927;28;20471;-71
2022/12/22 03:48:39;;;;;;;154.13;53.30;;;6.20;99.90;;;;;;4973901;28;20058;-70
2022/12/22 03:51:05;;;;;;;144.32;51.90;;;6.30;99.90;;;;;;4974523;28;20483;-70
2022/12/22 03:53:31;;;;;;;151.98;51.38;;;6.20;99.90;;;;;;4974643;28;20034;-70
2022/12/22 03:55:56;;;;;;;124.28;49.45;;;6.30;99.90;;;;;;4974382;28;20029;-71
2022/12/22 03:58:22;;;;;;;142.00;49.90;;;6.30;99.90;;;;;;4974537;28;20489;-70
2022/12/22 04:00:47;;;;;;;150.18;52.83;;;6.30;99.90;;;;;;4989463;28;20153;-70
2022/12/22 04:03:13;;;;;;;152.15;53.67;;;6.30;99.90;;;;;;4974762;28;20375;-70
2022/12/22 04:05:39;;;;;;;127.10;49.33;;;6.30;99.90;;;;;;4974444;28;20046;-70
2022/12/22 04:08:05;;;;;;;135.48;51.88;;;6.20;99.90;;;;;;4960350;28;20423;-70
2022/12/22 04:13:15;;;;;;;118.93;46.92;;;6.20;99.90;;;;;;4966664;28;20049;-70
2022/12/22 04:18:11;;;;;;;131.05;44.80;;;6.30;99.90;;;;;;5016619;23;20050;-70
2022/12/22 04:20:36;;;;;;;130.85;49.25;;;6.30;99.90;;;;;;4995296;28;20050;-70
2022/12/22 04:23:02;;;;;;;142.65;49.95;;;6.30;99.90;;;;;;4997740;28;20030;-69
2022/12/22 04:25:28;;;;;;;138.32;47.38;;;6.30;99.90;;;;;;4997694;28;20089;-70
2022/12/22 04:27:54;;;;;;;130.10;48.55;;;6.30;99.90;;;;;;4997723;28;20019;-70
2022/12/22 04:30:19;;;;;;;134.25;49.33;;;6.30;99.90;;;;;;5002669;28;20440;-70
2022/12/22 04:32:45;;;;;;;131.52;47.78;;;6.30;99.90;;;;;;5016829;28;20028;-70
2022/12/22 04:35:10;;;;;;;131.13;48.15;;;6.30;99.90;;;;;;5016088;28;20486;-70
2022/12/22 04:37:36;;;;;;;128.80;49.28;;;6.30;99.90;;;;;;4997507;28;20548;-70
2022/12/22 04:40:03;;;;;;;113.55;46.15;;;6.30;99.90;;;;;;4997540;28;20455;-69
2022/12/22 04:42:28;;;;;;;117.90;45.55;;;6.30;99.90;;;;;;4997298;28;20062;-70
2022/12/22 04:44:54;;;;;;;111.03;45.40;;;6.30;99.90;;;;;;4997420;28;20034;-69
2022/12/22 04:47:19;;;;;;;124.78;48.70;;;6.30;99.90;;;;;;4996842;28;20018;-70
2022/12/22 04:49:45;;;;;;;116.60;47.22;;;6.30;99.90;;;;;;4996912;28;20019;-70
2022/12/22 04:52:11;;;;;;;145.27;51.55;;;6.30;99.90;;;;;;4997851;28;20109;-69
2022/12/22 04:54:36;;;;;;;130.68;51.35;;;6.30;99.90;;;;;;4998220;28;20104;-70
2022/12/22 04:57:02;;;;;;;145.48;50.28;;;6.30;99.90;;;;;;4988734;28;20077;-70
2022/12/22 04:59:27;;;;;;;125.47;46.92;;;6.20;99.90;;;;;;4996702;28;20030;-70
2022/12/22 05:01:53;;;;;;;118.65;47.15;;;6.30;99.90;;;;;;4999291;28;20023;-70
2022/12/22 05:04:18;;;;;;;141.68;51.00;;;6.30;99.90;;;;;;5016707;28;20436;-69
2022/12/22 05:06:44;;;;;;;131.05;49.40;;;6.30;99.90;;;;;;5016533;28;20474;-71
2022/12/22 05:09:10;;;;;;;160.00;53.58;;;6.30;99.90;;;;;;5016810;28;20064;-70
2022/12/22 05:11:36;;;;;;;152.45;49.85;;;6.30;99.90;;;;;;5016901;28;20029;-69
2022/12/22 05:14:02;;;;;;;163.88;53.45;;;6.30;99.90;;;;;;5011140;28;20037;-70
2022/12/22 05:16:27;;;;;;;138.60;50.03;;;6.30;99.90;;;;;;5016197;28;20038;-70
2022/12/22 05:18:53;;;;;;;148.50;53.85;;;6.30;99.90;;;;;;5014187;28;20064;-70
2022/12/22 05:21:21;;;;;;;148.77;50.70;;;6.30;99.90;;;;;;5014216;28;20044;-71
2022/12/22 05:23:47;;;;;;;145.93;49.95;;;6.30;99.90;;;;;;4996440;28;20022;-72
2022/12/22 05:26:13;;;;;;;160.68;51.92;;;6.30;99.90;;;;;;4997416;28;20084;-70
2022/12/22 05:28:41;;;;;;;148.00;51.03;;;6.30;99.90;;;;;;5016225;28;20033;-70
2022/12/22 05:31:09;;;;;;;145.82;50.40;;;6.30;99.90;;;;;;5016262;28;20072;-69
2022/12/22 05:33:35;;;;;;;151.23;51.63;;;6.30;99.90;;;;;;5003639;28;20030;-70
2022/12/22 05:36:00;;;;;;;147.57;52.80;;;6.30;99.90;;;;;;4996430;28;20026;-70
2022/12/22 05:38:26;;;;;;;145.73;49.00;;;6.30;99.90;;;;;;4990430;28;20482;-70
2022/12/22 05:40:51;;;;;;;144.45;52.53;;;6.30;99.90;;;;;;4977261;28;20031;-69
2022/12/22 05:43:20;;;;;;;152.07;51.10;;;6.20;99.90;;;;;;4983130;28;20478;-71
2022/12/22 05:45:45;;;;;;;145.63;50.90;;;6.20;99.90;;;;;;5015443;28;20029;-70
2022/12/22 05:48:11;;;;;;;151.93;51.78;;;6.20;99.90;;;;;;5015842;28;20493;-70
2022/12/22 05:50:36;;;;;;;154.48;51.90;;;6.10;99.90;;;;;;4997162;28;20057;-70
2022/12/22 05:53:03;;;;;;;157.10;50.30;;;6.10;99.90;;;;;;5006480;28;20026;-70
2022/12/22 05:55:29;;;;;;;144.77;49.72;;;6.10;99.90;;;;;;4996455;28;20038;-69
2022/12/22 05:57:54;;;;;;;154.77;50.88;;;6.10;99.90;;;;;;4996076;28;20081;-70
2022/12/22 06:00:20;;;;;;;142.70;50.45;;;6.10;99.90;;;;;;4995758;28;20036;-70
2022/12/22 06:02:46;;;;;;;151.90;51.85;;;6.20;99.90;;;;;;4995974;28;20034;-70
2022/12/22 06:05:13;;;;;;;155.05;51.35;;;6.10;99.90;;;;;;4996015;28;20422;-70
2022/12/22 06:07:39;;;;;;;153.70;49.72;;;6.10;99.90;;;;;;4995367;28;20026;-71
2022/12/22 06:10:06;;;;;;;158.93;53.72;;;6.10;99.90;;;;;;4996198;28;20429;-69
2022/12/22 06:12:32;;;;;;;159.05;53.38;;;6.10;99.90;;;;;;4995836;28;20034;-70
2022/12/22 06:14:57;;;;;;;154.40;52.45;;;6.00;99.90;;;;;;4995766;28;20506;-70
2022/12/22 06:17:23;;;;;;;161.23;53.67;;;6.00;99.90;;;;;;4995641;28;20039;-70
2022/12/22 06:19:48;;;;;;;164.00;52.42;;;6.00;99.90;;;;;;4995715;28;20041;-70
2022/12/22 06:22:14;;;;;;;162.10;51.38;;;6.00;99.90;;;;;;4995563;28;20038;-70
2022/12/22 06:24:39;;;;;;;159.20;50.28;;;6.00;99.90;;;;;;4995665;28;20105;-69
2022/12/22 06:27:05;;;;;;;154.75;48.55;;;6.00;99.90;;;;;;4995535;28;20434;-70
2022/12/22 06:29:30;;;;;;;163.00;52.88;;;6.00;99.90;;;;;;4995761;28;20014;-70
2022/12/22 06:31:56;;;;;;;160.65;47.63;;;6.00;99.90;;;;;;4995266;28;20031;-70
2022/12/22 06:34:22;;;;;;;151.38;49.75;;;6.00;99.90;;;;;;4995425;28;20489;-69
2022/12/22 06:36:48;;;;;;;178.07;52.67;;;5.90;99.90;;;;;;4995641;28;20076;-70
2022/12/22 06:39:15;;;;;;;172.10;50.22;;;6.00;99.90;;;;;;4995104;28;20038;-70
2022/12/22 06:44:25;;;;;;;164.25;49.08;;;6.00;99.90;;;;;;4995347;28;20033;-69
2022/12/22 06:46:51;;;;;;;159.27;49.65;;;6.00;99.90;;;;;;4995468;28;20093;-70
2022/12/22 06:49:17;;;;;;;173.73;47.65;;;6.00;99.90;;;;;;4995465;28;20037;-69
2022/12/22 06:51:42;;;;;;;146.13;45.72;;;6.00;99.90;;;;;;4994616;28;20145;-70
2022/12/22 06:54:08;;;;;;;136.98;43.60;;;6.00;99.90;;;;;;4995584;28;20031;-69
2022/12/22 06:56:33;;;;;;;141.32;43.90;;;6.00;99.90;;;;;;4994939;28;20030;-70
2022/12/22 06:58:59;;;;;;;140.10;46.30;;;6.00;99.90;;;;;;4994976;28;20034;-69
2022/12/22 07:01:24;;;;;;;129.50;42.65;;;6.00;99.90;;;;;;4994343;28;20033;-70
2022/12/22 07:03:50;;;;;;;121.43;43.35;;;5.90;99.90;;;;;;4994899;28;20100;-69
2022/12/22 07:06:18;;;;;;;132.25;44.05;;;5.80;99.90;;;;;;4994815;28;20027;-70
2022/12/22 07:08:45;;;;;;;141.50;42.22;;;5.70;99.90;;;;;;4994793;28;20038;-69
2022/12/22 07:11:11;;;;;;;129.43;43.05;;;5.70;99.90;;;;;;4995330;28;20512;-69
2022/12/22 07:13:37;;;;;;;130.73;44.47;;;5.70;99.90;;;;;;4994473;28;20109;-70
2022/12/22 07:16:04;;;;;;;131.65;44.17;;;5.70;99.90;;;;;;4994395;28;20454;-70
2022/12/22 07:18:32;;;;;;;131.70;44.63;;;5.80;99.90;;;;;;4994624;28;20057;-69
2022/12/22 07:20:58;;;;;;;132.75;46.08;;;5.80;99.90;;;;;;4994845;28;20402;-69
2022/12/22 07:23:25;;;;;;;137.40;43.60;;;5.80;99.90;;;;;;4994425;28;20065;-70
2022/12/22 07:25:51;;;;;;;117.88;40.67;;;5.80;99.90;;;;;;4993956;28;20022;-70
2022/12/22 07:28:16;;;;;;;108.93;38.85;;;5.80;99.90;;;;;;4994717;28;20410;-69
2022/12/22 07:30:42;;;;;;;122.30;43.28;;;5.90;99.90;;;;;;4994848;28;20062;-70
2022/12/22 07:33:07;;;;;;;123.45;42.35;;;5.90;99.90;;;;;;4994124;28;20038;-70
2022/12/22 07:35:33;;;;;;;115.60;41.20;;;5.90;99.90;;;;;;4994290;28;20168;-69
2022/12/22 07:37:59;;;;;;;117.30;42.28;;;5.90;99.90;;;;;;4994195;28;20545;-70
2022/12/22 07:40:24;;;;;;;112.15;39.92;;;6.00;99.90;;;;;;4994226;28;20033;-69
2022/12/22 07:42:55;;;;;;;109.05;41.97;;;6.00;99.90;;;;;;4994075;28;20041;-69
2022/12/22 07:45:21;;;;;;;117.45;42.15;;;6.00;99.90;;;;;;4993848;28;20030;-69
2022/12/22 07:47:47;;;;;;;117.53;41.53;;;6.00;99.90;;;;;;4994052;28;20026;-70
2022/12/22 07:50:26;;;;;;;119.47;42.78;;;6.00;99.90;;;;;;4994052;28;20057;-69
2022/12/22 07:52:53;;;;;;;113.32;39.78;;;6.00;99.90;;;;;;4994356;28;20034;-69
2022/12/22 07:55:19;;;;;;;115.65;40.25;;;6.00;99.90;;;;;;4993385;28;20038;-70
2022/12/22 07:57:45;;;;;;;94.32;37.83;;;6.00;99.90;;;;;;4993529;28;20482;-69
2022/12/22 08:00:11;;;;;;;111.10;42.20;;;6.10;99.90;;;;;;4994193;28;20038;-69
2022/12/22 08:02:37;;;;;;;110.38;40.17;;;6.10;99.90;;;;;;4994054;28;20097;-69
2022/12/22 08:05:03;;;;;;;99.10;37.42;;;6.00;99.90;;;;;;4993923;28;20022;-69
2022/12/22 08:07:31;;;;;;;122.60;42.13;;;6.00;99.90;;;;;;4993302;28;20183;-69
2022/12/22 08:09:57;;;;;;;122.63;39.53;;;6.00;99.90;;;;;;4994094;28;20026;-69
2022/12/22 08:12:22;;;;;;;117.95;42.60;;;5.80;99.90;;;;;;4993801;28;20482;-68
2022/12/22 08:14:48;;;;;;;119.05;39.65;;;5.70;99.90;;;;;;4993316;28;20041;-69
2022/12/22 08:17:13;;;;;;;119.70;40.75;;;5.70;99.90;;;;;;4993557;28;20034;-68
2022/12/22 08:19:39;;;;;;;122.63;41.45;;;5.70;99.90;;;;;;4993765;28;20121;-69
2022/12/22 08:22:05;;;;;;;115.63;40.30;;;5.70;99.90;;;;;;4994170;28;20109;-70
2022/12/22 08:24:30;;;;;;;120.90;42.25;;;5.80;99.90;;;;;;4993698;28;20394;-70
2022/12/22 08:27:00;;;;;;;114.18;38.88;;;5.80;99.90;;;;;;4993150;28;20093;-70
2022/12/22 08:29:33;;;;;;;109.85;37.72;;;5.80;99.90;;;;;;4993922;28;20022;-69
2022/12/22 08:31:59;;;;;;;111.13;36.13;;;5.80;99.90;;;;;;4994065;28;20169;-70
2022/12/22 08:34:25;;;;;;;101.68;36.08;;;5.80;99.90;;;;;;4993636;28;20036;-69
2022/12/22 08:36:55;;;;;;;107.95;33.30;;;5.90;99.90;;;;;;4993567;28;20022;-69
2022/12/22 08:39:22;;;;;;;101.22;33.53;;;5.90;99.90;;;;;;4993183;28;20482;-69
2022/12/22 08:41:48;;;;;;;97.85;31.73;;;5.80;99.90;;;;;;4993509;28;20037;-69
2022/12/22 08:44:14;;;;;;;104.75;34.35;;;5.80;99.90;;;;;;4993483;28;20030;-69
2022/12/22 08:46:40;;;;;;;101.50;33.75;;;5.80;99.90;;;;;;4993440;28;20053;-70
2022/12/22 08:49:06;;;;;;;105.95;32.55;;;5.80;99.90;;;;;;4993482;28;20066;-70
2022/12/22 08:51:31;;;;;;;104.20;32.55;;;5.80;99.90;;;;;;4993586;28;20105;-70
2022/12/22 08:53:57;;;;;;;98.45;32.75;;;5.90;99.90;;;;;;4993017;28;20030;-70
2022/12/22 08:56:22;;;;;;;94.25;32.33;;;5.90;99.90;;;;;;4993792;28;20062;-70
2022/12/22 08:58:48;;;;;;;87.20;29.50;;;5.90;99.90;;;;;;4993445;28;20069;-70
2022/12/22 09:01:19;;;;;;;108.63;31.77;;;5.90;99.90;;;;;;4993414;28;20110;-70
2022/12/22 09:03:52;;;;;;;108.43;34.05;;;6.00;99.90;;;;;;4993677;28;20081;-70
2022/12/22 09:06:20;;;;;;;97.95;33.10;;;5.90;99.90;;;;;;4993950;28;20439;-70
2022/12/22 09:08:46;;;;;;;85.53;31.13;;;5.90;99.90;;;;;;4996000;28;20117;-70
2022/12/22 09:11:12;;;;;;;110.45;33.40;;;5.90;99.90;;;;;;4997025;28;20022;-70
2022/12/22 09:13:37;;;;;;;93.78;32.75;;;5.90;99.90;;;;;;4996985;28;20034;-70
2022/12/22 09:16:05;;;;;;;88.93;32.70;;;6.00;99.90;;;;;;4994332;28;20065;-70
2022/12/22 09:18:31;;;;;;;119.80;37.17;;;6.10;99.90;;;;;;4996416;28;20034;-70
2022/12/22 09:20:56;;;;;;;116.05;39.42;;;6.00;99.90;;;;;;4996415;28;20041;-71
2022/12/22 09:23:22;;;;;;;94.65;33.17;;;6.10;99.90;;;;;;4996699;28;20026;-70
2022/12/22 09:25:47;;;;;;;94.80;31.55;;;6.10;99.90;;;;;;4996774;28;20030;-70
2022/12/22 09:28:13;;;;;;;102.47;32.08;;;6.20;99.90;;;;;;4996954;28;20030;-69
2022/12/22 09:30:38;;;;;;;98.25;31.20;;;6.20;99.90;;;;;;4996143;28;20033;-70
2022/12/22 09:33:04;;;;;;;74.65;28.25;;;6.20;99.90;;;;;;4996611;28;20602;-69
2022/12/22 09:35:29;;;;;;;89.53;30.45;;;6.30;99.90;;;;;;4996562;28;20042;-69
2022/12/22 09:37:55;;;;;;;86.95;28.65;;;6.40;99.90;;;;;;4996472;28;20030;-69
2022/12/22 09:40:21;;;;;;;87.55;29.67;;;6.40;99.90;;;;;;4995986;28;20038;-69
2022/12/22 09:42:46;;;;;;;87.88;30.58;;;6.40;99.90;;;;;;4996636;28;20034;-69
2022/12/22 09:45:21;;;;;;;88.35;30.85;;;6.40;99.90;;;;;;4995872;28;20493;-69
2022/12/22 09:47:52;;;;;;;73.20;28.58;;;6.40;99.90;;;;;;4996643;28;20371;-69
2022/12/22 09:50:22;;;;;;;71.07;28.92;;;6.40;99.90;;;;;;4995884;28;20367;-70
2022/12/22 09:52:53;;;;;;;85.13;27.65;;;6.40;99.90;;;;;;4996586;28;20030;-69
2022/12/22 09:55:37;;;;;;;70.78;25.17;;;6.50;99.90;;;;;;4996524;28;20398;-69
2022/12/22 09:58:02;;;;;;;68.65;23.63;;;6.50;99.90;;;;;;4996438;28;20022;-69
2022/12/22 10:00:28;;;;;;;72.32;26.92;;;6.60;99.90;;;;;;4996082;28;20037;-70
2022/12/22 10:03:07;;;;;;;68.63;25.42;;;6.70;99.90;;;;;;4995267;28;20030;-70
2022/12/22 10:05:52;;;;;;;71.13;24.55;;;6.70;99.90;;;;;;4976631;28;20069;-69
2022/12/22 10:08:26;;;;;;;56.30;20.60;;;6.80;99.90;;;;;;4990089;28;20078;-70
2022/12/22 10:10:53;;;;;;;54.13;23.35;;;6.70;99.90;;;;;;4996273;28;20034;-69
2022/12/22 10:13:19;;;;;;;55.90;19.80;;;6.70;99.90;;;;;;4996090;28;20378;-70
2022/12/22 10:15:45;;;;;;;50.08;19.40;;;6.80;99.90;;;;;;4995307;28;20038;-70
2022/12/22 10:18:17;;;;;;;64.95;21.27;;;6.70;99.90;;;;;;5063643;23;20466;-70
2022/12/22 10:21:07;;;;;;;60.22;20.65;;;6.70;99.90;;;;;;5014734;28;20025;-69
2022/12/22 10:23:38;;;;;;;60.10;22.15;;;6.70;99.90;;;;;;5015471;28;20099;-70
2022/12/22 10:26:31;;;;;;;69.25;21.10;;;6.70;99.90;;;;;;4996970;28;20121;-70
2022/12/22 10:29:10;;;;;;;61.90;20.35;;;6.70;99.90;;;;;;4968670;28;20109;-70
2022/12/22 10:31:53;;;;;;;63.58;20.95;;;6.70;99.90;;;;;;4975118;28;20027;-70
2022/12/22 10:34:19;;;;;;;49.75;20.33;;;6.70;99.90;;;;;;4976456;28;20034;-70
2022/12/22 10:36:49;;;;;;;54.50;19.70;;;6.70;99.90;;;;;;4975923;28;20027;-70
2022/12/22 10:39:24;;;;;;;55.42;17.73;;;6.70;99.90;;;;;;4974191;28;20117;-70
2022/12/22 10:41:54;;;;;;;46.42;18.98;;;6.70;99.90;;;;;;4974716;28;20545;-70
2022/12/22 10:44:29;;;;;;;44.58;19.60;;;6.70;99.90;;;;;;4975860;28;20038;-70
2022/12/22 10:47:00;;;;;;;47.63;18.45;;;6.70;99.90;;;;;;4987321;28;20489;-70
2022/12/22 10:49:36;;;;;;;56.08;17.38;;;6.70;99.90;;;;;;4994973;28;20029;-70
2022/12/22 10:52:13;;;;;;;51.45;19.42;;;6.80;99.90;;;;;;4982906;28;20039;-71
2022/12/22 10:54:42;;;;;;;61.53;19.75;;;6.80;99.90;;;;;;4975740;28;20081;-70
2022/12/22 10:57:14;;;;;;;55.35;19.33;;;6.80;99.90;;;;;;4975367;28;20041;-71
2022/12/22 10:59:55;;;;;;;57.10;19.63;;;6.80;99.90;;;;;;4975516;28;20054;-71
2022/12/22 11:02:21;;;;;;;56.42;17.52;;;6.90;99.90;;;;;;4975474;28;20034;-70
2022/12/22 11:04:47;;;;;;;44.17;15.88;;;6.90;99.90;;;;;;4985686;28;20029;-71
2022/12/22 11:07:13;;;;;;;60.28;17.48;;;7.00;99.90;;;;;;4977350;28;20034;-70
2022/12/22 11:09:39;;;;;;;62.25;17.95;;;7.00;99.90;;;;;;4989647;28;20023;-72
2022/12/22 11:12:43;;;;;;;49.50;14.38;;;7.00;99.90;;;;;;4975920;28;20034;-70
2022/12/22 11:15:37;;;;;;;42.70;13.35;;;6.90;99.90;;;;;;4975664;28;20383;-70
2022/12/22 11:18:27;;;;;;;47.85;14.05;;;6.90;99.90;;;;;;4975108;28;20042;-71
2022/12/22 11:21:20;;;;;;;45.45;14.88;;;6.80;99.90;;;;;;4974773;28;20049;-71
2022/12/22 11:24:14;;;;;;;57.65;13.73;;;6.80;99.90;;;;;;4980127;28;20022;-71
2022/12/22 11:27:03;;;;;;;47.57;14.07;;;6.80;99.90;;;;;;4990866;28;20046;-71
2022/12/22 11:29:48;;;;;;;43.05;13.85;;;6.90;99.90;;;;;;4975163;28;20027;-70
2022/12/22 11:32:54;;;;;;;48.40;12.05;;;6.90;99.90;;;;;;4974810;28;20066;-71
2022/12/22 11:35:35;;;;;;;50.90;12.15;;;7.00;99.90;;;;;;4975012;28;20536;-70
2022/12/22 11:38:18;;;;;;;53.30;10.88;;;7.10;99.90;;;;;;4974960;28;20077;-70
2022/12/22 11:40:48;;;;;;;49.15;11.10;;;7.20;99.90;;;;;;4987877;28;20030;-70
2022/12/22 11:43:19;;;;;;;43.25;10.32;;;7.30;99.90;;;;;;4993721;28;20057;-70
2022/12/22 11:45:50;;;;;;;42.65;11.43;;;7.30;99.90;;;;;;4968278;28;20029;-71
2022/12/22 11:49:04;;;;;;;58.85;12.00;;;7.30;99.90;;;;;;4957431;28;20030;-70
2022/12/22 11:52:06;;;;;;;44.13;10.55;;;7.30;99.90;;;;;;4963742;28;20037;-70
2022/12/22 11:55:02;;;;;;;48.78;10.27;;;7.30;99.90;;;;;;4994117;28;20101;-70
2022/12/22 11:57:52;;;;;;;40.35;10.13;;;7.40;99.90;;;;;;4982980;28;20105;-70
2022/12/22 12:00:18;;;;;;;51.15;12.27;;;7.40;99.90;;;;;;4973174;28;20023;-71
2022/12/22 12:03:08;;;;;;;53.83;10.85;;;7.40;99.90;;;;;;4984149;28;20072;-71
2022/12/22 12:05:39;;;;;;;49.38;10.18;;;7.40;99.90;;;;;;4994270;28;20402;-70
2022/12/22 12:08:32;;;;;;;54.10;10.57;;;7.40;99.90;;;;;;4986116;28;20054;-71
2022/12/22 12:11:27;;;;;;;39.92;10.38;;;7.40;99.90;;;;;;4972827;28;20154;-71
2022/12/22 12:14:26;;;;;;;44.35;10.15;;;7.40;99.90;;;;;;4974720;28;20059;-71
2022/12/22 12:17:18;;;;;;;31.27;9.80;;;7.40;99.90;;;;;;4974204;28;20023;-71
2022/12/22 12:19:58;;;;;;;40.90;9.88;;;7.30;99.90;;;;;;4953981;28;20031;-71
2022/12/22 12:22:23;;;;;;;48.60;11.57;;;7.40;99.90;;;;;;4957005;28;20043;-70
2022/12/22 12:25:00;;;;;;;43.53;9.73;;;7.40;99.90;;;;;;4973926;28;20138;-70
2022/12/22 12:27:46;;;;;;;56.38;12.13;;;7.50;99.90;;;;;;4974458;28;20031;-71
2022/12/22 12:30:15;;;;;;;49.78;10.07;;;7.50;99.90;;;;;;4974595;28;20482;-70
2022/12/22 12:32:51;;;;;;;32.80;8.95;;;7.50;99.90;;;;;;4973968;28;20031;-71
2022/12/22 12:35:47;;;;;;;35.70;10.40;;;7.50;99.90;;;;;;4974259;28;20023;-70
2022/12/22 12:38:33;;;;;;;44.22;9.85;;;7.50;99.90;;;;;;4974263;28;20055;-70
2022/12/22 12:41:22;;;;;;;36.58;9.65;;;7.30;99.90;;;;;;4974239;28;20433;-71
2022/12/22 12:43:51;;;;;;;58.58;10.80;;;7.30;99.90;;;;;;4977744;28;20486;-70
2022/12/22 12:46:52;;;;;;;33.78;9.70;;;7.30;99.90;;;;;;4976830;28;20545;-70
2022/12/22 12:49:33;;;;;;;30.13;8.75;;;7.30;99.90;;;;;;4978317;28;20031;-70
2022/12/22 12:52:09;;;;;;;40.40;9.43;;;7.00;99.90;;;;;;4977988;28;20367;-70
2022/12/22 12:54:42;;;;;;;20.85;9.18;;;6.90;99.90;;;;;;4977469;28;20027;-70
2022/12/22 12:57:28;;;;;;;30.70;8.57;;;6.90;99.90;;;;;;4978088;28;20042;-71
2022/12/22 12:59:59;;;;;;;32.47;8.30;;;6.80;99.90;;;;;;4977840;28;20027;-70
2022/12/22 13:02:28;;;;;;;30.52;8.45;;;6.80;99.90;;;;;;4977704;28;20027;-71
2022/12/22 13:05:11;;;;;;;149.02;11.20;;;6.70;99.90;;;;;;4975987;28;20027;-70
2022/12/22 13:08:14;;;;;;;39.65;7.97;;;6.60;99.90;;;;;;4977935;28;20383;-70
2022/12/22 13:11:00;;;;;;;65.35;8.02;;;6.60;99.90;;;;;;4977553;28;20482;-70
2022/12/22 13:13:26;;;;;;;40.22;7.80;;;6.60;99.90;;;;;;4956541;28;20039;-70
2022/12/22 13:16:00;;;;;;;31.80;7.10;;;6.60;99.90;;;;;;4977499;28;20394;-70
2022/12/22 13:18:27;;;;;;;26.55;7.68;;;6.60;99.90;;;;;;4977273;28;20074;-70
2022/12/22 13:21:04;;;;;;;37.72;8.68;;;6.60;99.90;;;;;;4977394;28;20506;-70
2022/12/22 13:23:35;;;;;;;36.15;8.98;;;6.70;99.90;;;;;;4976818;28;20031;-71
2022/12/22 13:26:31;;;;;;;37.15;9.60;;;6.70;99.90;;;;;;4977678;28;20030;-70
2022/12/22 13:28:59;;;;;;;32.83;9.10;;;6.70;99.90;;;;;;4977211;28;20022;-70
2022/12/22 13:31:32;;;;;;;35.70;9.23;;;6.60;99.90;;;;;;4976036;28;20482;-70
2022/12/22 13:34:29;;;;;;;34.40;11.27;;;6.60;99.90;;;;;;4976948;28;20037;-70
2022/12/22 13:37:02;;;;;;;49.28;10.50;;;6.50;99.90;;;;;;4977422;28;20019;-70
2022/12/22 13:39:28;;;;;;;50.20;10.68;;;6.50;99.90;;;;;;4978043;28;20027;-70
2022/12/22 13:41:54;;;;;;;33.00;10.65;;;6.50;99.90;;;;;;4975979;28;20394;-70
2022/12/22 13:44:29;;;;;;;49.85;11.70;;;6.50;99.90;;;;;;4976508;28;20166;-71
2022/12/22 13:47:00;;;;;;;41.08;12.13;;;6.50;99.90;;;;;;4977265;28;20425;-70
2022/12/22 13:49:26;;;;;;;45.03;11.98;;;6.50;99.90;;;;;;4976965;28;20395;-70
2022/12/22 13:51:52;;;;;;;43.35;11.98;;;6.50;99.90;;;;;;4976899;28;20031;-70
2022/12/22 13:54:28;;;;;;;46.13;12.98;;;6.50;99.90;;;;;;4975501;28;20037;-71
2022/12/22 13:56:55;;;;;;;47.85;11.98;;;6.60;99.90;;;;;;4977278;28;20483;-70
2022/12/22 13:59:30;;;;;;;45.20;12.32;;;6.60;99.90;;;;;;4976778;28;20114;-70
2022/12/22 14:01:59;;;;;;;41.17;13.45;;;6.60;99.90;;;;;;4975375;28;20122;-70
2022/12/22 14:04:25;;;;;;;45.47;11.60;;;6.70;99.90;;;;;;4976638;28;20019;-70
2022/12/22 14:06:50;;;;;;;62.28;12.90;;;6.70;99.90;;;;;;4976598;28;20074;-70
2022/12/22 14:09:25;;;;;;;54.35;11.65;;;6.70;99.90;;;;;;4976038;28;20019;-70
2022/12/22 14:12:06;;;;;;;62.08;11.75;;;6.70;99.90;;;;;;4976977;28;20090;-70
2022/12/22 14:14:37;;;;;;;42.15;9.63;;;6.70;99.90;;;;;;4976773;28;20387;-70
2022/12/22 14:17:03;;;;;;;54.03;10.95;;;6.70;99.90;;;;;;4976460;28;20034;-71
2022/12/22 14:19:38;;;;;;;47.65;10.50;;;6.70;99.90;;;;;;4976156;28;20045;-71
2022/12/22 14:22:12;;;;;;;63.10;9.93;;;6.70;99.90;;;;;;4976853;28;20444;-70
2022/12/22 14:25:02;;;;;;;66.40;11.55;;;6.70;99.90;;;;;;4976347;28;20050;-70
2022/12/22 14:27:42;;;;;;;76.22;10.85;;;6.70;99.90;;;;;;4976162;28;20050;-70
2022/12/22 14:30:19;;;;;;;52.80;8.65;;;6.70;99.90;;;;;;4974503;28;20125;-70
2022/12/22 14:32:48;;;;;;;71.20;9.07;;;6.70;99.90;;;;;;4976731;28;20019;-70
2022/12/22 14:35:19;;;;;;;59.92;7.72;;;6.70;99.90;;;;;;4976077;28;20037;-70
2022/12/22 14:38:05;;;;;;;56.00;7.80;;;6.70;99.90;;;;;;4975472;28;20486;-70
2022/12/22 14:40:41;;;;;;;70.15;7.53;;;6.70;99.90;;;;;;4975516;28;20041;-70
2022/12/22 14:43:16;;;;;;;34.05;5.40;;;6.70;99.90;;;;;;4974645;28;20442;-70
2022/12/22 14:45:43;;;;;;;48.45;6.68;;;6.70;99.90;;;;;;4975922;28;20031;-70
2022/12/22 14:48:15;;;;;;;57.15;7.18;;;6.70;99.90;;;;;;4975739;28;20037;-71
2022/12/22 14:50:48;;;;;;;52.92;5.95;;;6.70;99.90;;;;;;4975442;28;20082;-70
2022/12/22 14:53:20;;;;;;;55.58;6.88;;;6.70;99.90;;;;;;4975970;28;20054;-71
2022/12/22 14:55:50;;;;;;;53.78;6.18;;;6.80;99.90;;;;;;4975990;28;20453;-70
2022/12/22 14:58:21;;;;;;;39.33;8.43;;;6.80;99.90;;;;;;4975638;28;20027;-70
2022/12/22 15:01:07;;;;;;;58.05;7.80;;;6.80;99.90;;;;;;4976147;28;20027;-70
2022/12/22 15:03:35;;;;;;;55.35;6.28;;;6.80;99.90;;;;;;4974830;28;20038;-71
2022/12/22 15:06:25;;;;;;;61.63;7.43;;;6.70;99.90;;;;;;4975355;28;20027;-70
2022/12/22 15:08:53;;;;;;;56.67;7.15;;;6.70;99.90;;;;;;4975913;28;20023;-71
2022/12/22 15:11:22;;;;;;;44.33;5.82;;;6.70;99.90;;;;;;4974874;28;20086;-71
2022/12/22 15:13:50;;;;;;;55.97;7.32;;;6.60;99.90;;;;;;4975346;28;20399;-70
2022/12/22 15:16:21;;;;;;;44.22;6.15;;;6.70;99.90;;;;;;4975467;28;20037;-71
2022/12/22 15:18:48;;;;;;;38.65;6.07;;;6.70;99.90;;;;;;4973821;28;20085;-71
2022/12/22 15:21:15;;;;;;;68.13;7.40;;;6.70;99.90;;;;;;4974581;28;20031;-71
2022/12/22 15:23:41;;;;;;;53.90;6.53;;;6.70;99.90;;;;;;4975071;28;20034;-71
2022/12/22 15:26:07;;;;;;;53.55;6.30;;;6.70;99.90;;;;;;4975118;28;20019;-71
2022/12/22 15:28:33;;;;;;;60.50;7.07;;;6.70;99.90;;;;;;4975584;28;20077;-71
2022/12/22 15:31:00;;;;;;;45.13;7.00;;;6.60;99.90;;;;;;4974503;28;20509;-71
2022/12/22 15:33:26;;;;;;;60.53;6.57;;;6.70;99.90;;;;;;4957677;28;20035;-71
2022/12/22 15:35:51;;;;;;;56.88;6.82;;;6.70;99.90;;;;;;4974978;28;20495;-70
2022/12/22 15:38:20;;;;;;;47.47;5.95;;;6.70;99.90;;;;;;4974823;28;20110;-71
2022/12/22 15:40:46;;;;;;;51.00;7.05;;;6.60;99.90;;;;;;4974343;28;20082;-70
2022/12/22 15:43:16;;;;;;;46.47;6.30;;;6.60;99.90;;;;;;4974739;28;20053;-70
2022/12/22 15:45:43;;;;;;;43.75;6.88;;;6.70;99.90;;;;;;4974798;28;20034;-70
2022/12/22 15:48:32;;;;;;;33.63;5.03;;;6.70;99.90;;;;;;4974748;28;20029;-70
2022/12/22 15:50:59;;;;;;;63.95;6.35;;;6.70;99.90;;;;;;4974209;28;20114;-71
2022/12/22 15:53:25;;;;;;;51.00;6.93;;;6.70;99.90;;;;;;4974729;28;20031;-70
2022/12/22 15:55:53;;;;;;;84.95;9.15;;;6.60;99.90;;;;;;4974587;28;20462;-70
2022/12/22 15:58:26;;;;;;;52.70;6.72;;;6.70;99.90;;;;;;4974786;28;20041;-70
2022/12/22 16:00:51;;;;;;;38.20;4.70;;;6.60;99.90;;;;;;4974614;28;20029;-71
2022/12/22 16:03:17;;;;;;;61.70;7.65;;;6.60;99.90;;;;;;4974227;28;20027;-72
2022/12/22 16:05:44;;;;;;;73.18;7.90;;;6.60;99.90;;;;;;4975040;28;20023;-70
2022/12/22 16:08:19;;;;;;;69.93;7.50;;;6.60;99.90;;;;;;4974337;28;20582;-71
2022/12/22 16:10:45;;;;;;;66.57;7.20;;;6.60;99.90;;;;;;4974744;28;20035;-70
2022/12/22 16:13:13;;;;;;;63.97;7.03;;;6.60;99.90;;;;;;4974025;28;20030;-71
2022/12/22 16:15:39;;;;;;;55.70;6.10;;;6.60;99.90;;;;;;4974385;28;20031;-71
2022/12/22 16:18:05;;;;;;;47.75;7.72;;;6.60;99.90;;;;;;5012079;23;20053;-70
2022/12/22 16:20:36;;;;;;;61.72;7.05;;;6.60;99.90;;;;;;5013658;28;20501;-69
2022/12/22 16:23:02;;;;;;;70.55;7.90;;;6.50;99.90;;;;;;5013634;28;20069;-69
2022/12/22 16:25:37;;;;;;;66.07;5.95;;;6.50;99.90;;;;;;5012872;28;20014;-69
2022/12/22 16:28:04;;;;;;;58.95;7.60;;;6.50;99.90;;;;;;5013252;28;20101;-69
2022/12/22 16:30:32;;;;;;;50.83;7.97;;;6.40;99.90;;;;;;5013633;28;20376;-69
2022/12/22 16:32:58;;;;;;;66.30;6.88;;;6.40;99.90;;;;;;5013623;28;20141;-69